Crookston, MN

1:47 AM CDT on July 13, 2014 (GMT -0500)
Crookston Municipal-Kirkwood (KCKN) Elev 899 ft | 47.84 °N, 96.62 °W | Change Station

Current weather conditions updated 12 minutes ago

Clear
Clear
52 °F
Feels Like 52 °F
N
0
Wind Variable Wind from North

Today is forecast to be Cooler than yesterday. Showers possible early tonight.

Today
High -- | Low -- °F
--% Chance of Precip.
Yesterday
High -- | Low -- °F
Precip. -- in
5:41 AM 9:22 PM
Full, 99% visible
Pressure 29.96 in
Visibility 4.0 miles
Clouds Clear
Dew Point 52 °F
Humidity 100%
Rainfall 0.00 in
Snow Depth Not available.
UV 0 out of 12
Pollen 4.20 out of 12
Air Quality Not available.
Flu Activity Sporadic
METAR KCKN 130635Z AUTO 00000KT 4SM BR CLR 11/11 A2996 RMK AO2

More Conditions Fewer Conditions

Pressure 29.96 in
Visibility 4.0 miles
Clouds Clear
Dew Point 52 °F
Humidity 100%
Rainfall 0.00 in
Snow Depth Not available.
UV 0 out of 12
Pollen 4.20 out of 12
Air Quality Not available.
Flu Activity Sporadic
METAR KCKN 130635Z AUTO 00000KT 4SM BR CLR 11/11 A2996 RMK AO2

More Conditions Fewer Conditions

10-Day Weather Forecast

Almanac

Astronomy

Jul. 13, 2014 Rise Set
Actual Time 5:41 AM CDT 9:22 PM CDT
Civil Twilight 5:02 AM CDT 10:01 PM CDT
Nautical Twilight 4:09 AM CDT 10:54 PM CDT
Astronomical Twilight 2:54 AM CDT 12:07 AM CDT
Moon 9:57 PM CDT 7:24 AM CDT
Length of Visible Light 16h 59m
Length of Day
15h 40m
Tomorrow will be 1m 46s shorter.
Full, 99% of the Moon is Illuminated
Today
Full
Jul 18
Last Quarter
Jul 26
New
Aug 3
First Quarter
Aug 10
Full

Today's Extremes

State Highs State Lows

Community

WunderPhotos

Upload Photos

1,733,116 photos uploaded!

Nearby

Snow Depth

Station Depth Elevation
No new snow has been reported.

Earthquake Activity

City Distance Mag. Time & Date
No recent earthquake activity has been reported nearby.
Minimum magnitude displayed is 2.5.

Coastal Water Temperatures

Place Temperature
No Stations Reporting

Nearby Weather Stations

Station Location Temp. Dew Point Humidity Wind Precip. Elev Updated Type
Rural Gentilly, Red Lake Falls, MN 55.0 °F 55 °F 99% SW  at  0.0 mph - / hr 1014 ft 1:39 AM CDT Normal
MesoWest GLACIAL RIDGE , Mentor, MN 55 °F 54 °F 96% NNW  at  4 mph 0.00 in / hr 1125 ft 11:00 PM CDT MADIS

Show More Stations Show Fewer Stations